createdAt,value
2022-09-21T00:01:09.626Z,5.13
2022-09-21T00:03:38.238Z,7.70
2022-09-21T00:06:06.961Z,5.60
2022-09-21T00:08:37.091Z,7.10
2022-09-21T00:11:06.073Z,4.65
2022-09-21T00:13:34.748Z,5.72
2022-09-21T00:16:03.426Z,5.22
2022-09-21T00:18:32.220Z,5.78
2022-09-21T00:21:00.518Z,4.95
2022-09-21T00:23:29.431Z,5.55
2022-09-21T00:26:07.290Z,4.30
2022-09-21T00:28:36.122Z,3.33
2022-09-21T00:31:04.849Z,3.67
2022-09-21T00:33:33.615Z,4.28
2022-09-21T00:36:05.830Z,4.03
2022-09-21T00:38:34.451Z,5.35
2022-09-21T00:41:02.810Z,3.53
2022-09-21T00:43:35.298Z,7.10
2022-09-21T00:46:04.940Z,3.22
2022-09-21T00:48:33.676Z,4.60
2022-09-21T00:51:04.228Z,4.57
2022-09-21T00:53:33.342Z,4.88
2022-09-21T00:56:02.897Z,5.40
2022-09-21T00:58:33.677Z,4.70
2022-09-21T01:01:02.578Z,4.43
2022-09-21T01:03:32.411Z,6.15
2022-09-21T01:06:00.724Z,4.00
2022-09-21T01:08:30.317Z,6.57
2022-09-21T01:11:05.091Z,3.97
2022-09-21T01:13:38.884Z,4.15
2022-09-21T01:16:09.823Z,6.07
2022-09-21T01:18:40.142Z,3.72
2022-09-21T01:21:19.205Z,6.32
2022-09-21T01:24:04.386Z,4.63
2022-09-21T01:26:39.860Z,4.57
2022-09-21T01:29:25.953Z,5.82
2022-09-21T01:32:00.111Z,6.05
2022-09-21T01:34:30.228Z,5.70
2022-09-21T01:37:00.516Z,4.10
2022-09-21T01:39:29.700Z,5.60
2022-09-21T01:41:59.498Z,6.35
2022-09-21T01:44:30.939Z,5.03
2022-09-21T01:47:01.896Z,5.65
2022-09-21T01:49:34.428Z,5.43
2022-09-21T01:52:06.811Z,5.15
2022-09-21T01:54:38.261Z,6.00
2022-09-21T01:57:09.266Z,4.07
2022-09-21T01:59:42.697Z,4.95
2022-09-21T02:02:15.606Z,3.72
2022-09-21T02:04:44.050Z,3.45
2022-09-21T02:07:12.553Z,5.10
2022-09-21T02:09:41.335Z,6.30
2022-09-21T02:12:09.835Z,6.32
2022-09-21T02:14:38.845Z,7.03
2022-09-21T02:17:13.029Z,7.00
2022-09-21T02:19:46.229Z,5.30
2022-09-21T02:22:17.676Z,6.22
2022-09-21T02:24:47.239Z,5.68
2022-09-21T02:27:25.979Z,4.95
2022-09-21T02:29:57.497Z,6.15
2022-09-21T02:32:37.343Z,6.18
2022-09-21T02:35:09.841Z,5.55
2022-09-21T02:37:42.649Z,6.45
2022-09-21T02:40:14.868Z,5.20
2022-09-21T02:42:46.253Z,7.55
2022-09-21T02:45:16.742Z,6.25
2022-09-21T02:47:48.742Z,6.97
2022-09-21T02:50:21.542Z,8.38
2022-09-21T02:52:50.208Z,5.03
2022-09-21T02:55:19.606Z,6.60
2022-09-21T02:57:49.262Z,8.13
2022-09-21T03:00:17.947Z,5.63
2022-09-21T03:02:47.441Z,5.85
2022-09-21T03:05:16.639Z,6.75
2022-09-21T03:07:46.374Z,5.88
2022-09-21T03:10:14.679Z,6.60
2022-09-21T03:12:46.963Z,5.85
2022-09-21T03:15:18.228Z,5.10
2022-09-21T03:17:46.595Z,5.95
2022-09-21T03:20:15.126Z,4.70
2022-09-21T03:22:43.490Z,5.85
2022-09-21T03:25:13.299Z,6.22
2022-09-21T03:27:42.782Z,7.70
2022-09-21T03:30:11.656Z,4.95
2022-09-21T03:32:39.985Z,5.55
2022-09-21T03:35:08.556Z,5.13
2022-09-21T03:37:41.095Z,5.63
2022-09-21T03:40:11.607Z,6.32
2022-09-21T03:42:41.400Z,5.63
2022-09-21T03:45:10.765Z,4.90
2022-09-21T03:47:39.577Z,9.07
2022-09-21T03:50:10.170Z,6.78
2022-09-21T03:52:39.286Z,5.18
2022-09-21T03:55:08.168Z,6.28
2022-09-21T03:57:36.998Z,5.03
2022-09-21T04:00:07.785Z,5.97
2022-09-21T04:02:36.229Z,5.15
2022-09-21T04:05:04.994Z,7.85
2022-09-21T04:07:34.598Z,4.53
2022-09-21T04:10:02.920Z,7.40
2022-09-21T04:12:31.537Z,5.43
2022-09-21T04:14:59.981Z,7.28
2022-09-21T04:17:29.690Z,5.93
2022-09-21T04:19:58.301Z,6.80
2022-09-21T04:22:26.787Z,4.95
2022-09-21T04:24:55.135Z,4.47
2022-09-21T04:27:24.048Z,4.63
2022-09-21T04:29:52.429Z,6.05
2022-09-21T04:32:20.849Z,6.60
2022-09-21T04:34:50.723Z,6.72
2022-09-21T04:37:19.081Z,8.60
2022-09-21T04:39:47.604Z,6.45
2022-09-21T04:42:15.971Z,5.88
2022-09-21T04:44:44.318Z,6.07
2022-09-21T04:47:12.820Z,5.88
2022-09-21T04:49:41.189Z,5.25
2022-09-21T04:52:12.240Z,6.97
2022-09-21T04:54:43.049Z,6.57
2022-09-21T04:57:11.395Z,5.68
2022-09-21T04:59:39.714Z,7.00
2022-09-21T05:02:08.342Z,7.40
2022-09-21T05:04:36.705Z,7.35
2022-09-21T05:07:05.301Z,8.32
2022-09-21T05:09:52.950Z,6.65
2022-09-21T05:12:21.582Z,5.43
2022-09-21T05:14:49.940Z,6.18
2022-09-21T05:17:18.326Z,6.47
2022-09-21T05:19:46.699Z,7.55
2022-09-21T05:22:15.133Z,6.32
2022-09-21T05:24:44.829Z,6.75
2022-09-21T05:27:13.560Z,7.90
2022-09-21T05:29:42.204Z,6.35
2022-09-21T05:32:15.126Z,11.20
2022-09-21T05:34:47.800Z,5.10
2022-09-21T05:37:22.435Z,6.65
2022-09-21T05:39:52.580Z,7.30
2022-09-21T05:42:21.227Z,9.18
2022-09-21T05:44:50.636Z,8.95
2022-09-21T05:47:25.157Z,11.88
2022-09-21T05:50:01.052Z,5.85
2022-09-21T05:52:32.129Z,7.25
2022-09-21T05:55:05.036Z,7.57
2022-09-21T05:57:39.696Z,6.63
2022-09-21T06:00:12.652Z,8.02
2022-09-21T06:02:52.423Z,6.75
2022-09-21T06:05:21.214Z,10.32
2022-09-21T06:07:49.556Z,6.82
2022-09-21T06:10:19.296Z,7.03
2022-09-21T06:12:47.650Z,7.93
2022-09-21T06:15:16.574Z,8.40
2022-09-21T06:17:44.948Z,9.77
2022-09-21T06:20:13.265Z,8.38
2022-09-21T06:22:41.617Z,9.88
2022-09-21T06:25:10.099Z,11.35
2022-09-21T06:27:39.824Z,7.60
2022-09-21T06:30:08.791Z,6.95
2022-09-21T06:32:37.132Z,6.10
2022-09-21T06:35:05.692Z,6.15
2022-09-21T06:37:34.045Z,9.23
2022-09-21T06:40:02.416Z,8.70
2022-09-21T06:42:30.868Z,8.13
2022-09-21T06:45:00.601Z,7.80
2022-09-21T06:47:28.983Z,7.90
2022-09-21T06:49:57.367Z,8.40
2022-09-21T06:52:25.840Z,8.52
2022-09-21T06:54:54.144Z,9.13
2022-09-21T06:57:23.812Z,7.05
2022-09-21T06:59:52.177Z,7.45
2022-09-21T07:02:21.980Z,12.45
2022-09-21T07:04:50.385Z,9.80
2022-09-21T07:07:18.715Z,8.48
2022-09-21T07:12:35.477Z,10.02
2022-09-21T07:15:03.813Z,7.25
2022-09-21T07:17:37.233Z,10.30
2022-09-21T07:20:06.387Z,10.43
2022-09-21T07:22:34.837Z,8.02
2022-09-21T07:25:03.261Z,11.18
2022-09-21T07:27:32.359Z,9.70
2022-09-21T07:30:00.846Z,10.48
2022-09-21T07:32:31.051Z,7.93
2022-09-21T07:35:00.880Z,10.65
2022-09-21T07:37:29.492Z,8.90
2022-09-21T07:39:57.868Z,10.10
2022-09-21T07:42:27.999Z,12.45
2022-09-21T07:45:03.982Z,11.88
2022-09-21T07:47:33.340Z,10.00
2022-09-21T07:50:03.343Z,10.82
2022-09-21T07:52:31.716Z,11.52
2022-09-21T07:55:00.095Z,11.32
2022-09-21T07:57:47.158Z,11.73
2022-09-21T08:00:15.963Z,12.00
2022-09-21T08:02:47.606Z,13.32
2022-09-21T08:05:17.830Z,9.23
2022-09-21T08:07:46.372Z,11.55
2022-09-21T08:10:14.761Z,12.48
2022-09-21T08:12:44.227Z,9.95
2022-09-21T08:15:36.871Z,11.43
2022-09-21T08:18:02.952Z,15.48
2022-09-21T08:20:32.753Z,12.07
2022-09-21T08:23:01.132Z,12.60
2022-09-21T08:25:30.307Z,14.05
2022-09-21T08:28:00.601Z,17.20
2022-09-21T08:30:31.142Z,12.57
2022-09-21T08:32:59.507Z,13.60
2022-09-21T08:35:28.111Z,13.02
2022-09-21T08:37:57.865Z,10.38
2022-09-21T08:40:26.527Z,11.32
2022-09-21T08:42:58.149Z,13.85
2022-09-21T08:45:28.586Z,12.32
2022-09-21T08:47:59.004Z,11.68
2022-09-21T08:50:33.876Z,12.48
2022-09-21T08:53:08.567Z,12.00
2022-09-21T08:55:36.941Z,10.23
2022-09-21T08:58:05.519Z,8.57
2022-09-21T09:00:37.937Z,9.88
2022-09-21T09:03:21.215Z,11.88
2022-09-21T09:05:52.129Z,7.97
2022-09-21T09:08:27.489Z,10.68
2022-09-21T09:11:01.246Z,6.28
2022-09-21T09:13:36.452Z,10.02
2022-09-21T09:16:10.435Z,6.85
2022-09-21T09:18:43.778Z,8.80
2022-09-21T09:21:15.977Z,6.80
2022-09-21T09:23:51.941Z,5.80
2022-09-21T09:26:23.433Z,5.03
2022-09-21T09:28:53.868Z,4.85
2022-09-21T09:31:24.752Z,7.97
2022-09-21T09:33:58.581Z,4.97
2022-09-21T09:36:54.038Z,11.07
2022-09-21T09:39:19.504Z,5.47
2022-09-21T09:42:02.750Z,8.98
2022-09-21T09:44:43.143Z,6.35
2022-09-21T09:47:15.818Z,4.20
2022-09-21T09:49:54.306Z,8.35
2022-09-21T09:52:22.803Z,5.93
2022-09-21T09:54:54.071Z,5.53
2022-09-21T09:57:26.851Z,3.40
2022-09-21T09:59:56.265Z,2.80
2022-09-21T10:02:25.311Z,7.55
2022-09-21T10:05:03.075Z,3.53
2022-09-21T10:07:36.026Z,5.85
2022-09-21T10:10:05.993Z,4.07
2022-09-21T10:12:34.339Z,7.55
2022-09-21T10:15:03.860Z,4.18
2022-09-21T10:17:32.235Z,3.20
2022-09-21T10:20:01.811Z,6.45
2022-09-21T10:22:30.628Z,3.03
2022-09-21T10:25:01.840Z,5.20
2022-09-21T10:27:34.935Z,6.10
2022-09-21T10:30:03.464Z,3.95
2022-09-21T10:32:32.009Z,5.97
2022-09-21T10:35:20.809Z,8.75
2022-09-21T10:37:53.739Z,5.35
2022-09-21T10:40:30.855Z,3.35
2022-09-21T10:43:02.333Z,4.68
2022-09-21T10:45:31.567Z,3.83
2022-09-21T10:48:01.010Z,5.07
2022-09-21T10:50:30.532Z,7.28
2022-09-21T10:53:01.519Z,3.33
2022-09-21T10:55:31.920Z,4.10
2022-09-21T10:58:01.786Z,4.32
2022-09-21T11:00:36.535Z,4.30
2022-09-21T11:03:08.424Z,3.90
2022-09-21T11:05:39.295Z,2.70
2022-09-21T11:08:13.639Z,4.50
2022-09-21T11:10:45.618Z,2.97
2022-09-21T11:13:22.044Z,4.45
2022-09-21T11:15:53.511Z,4.03
2022-09-21T11:18:24.040Z,3.95
2022-09-21T11:20:54.781Z,2.88
2022-09-21T11:23:41.093Z,5.47
2022-09-21T11:26:11.796Z,4.97
2022-09-21T11:28:43.972Z,6.45
2022-09-21T11:31:20.676Z,3.85
2022-09-21T11:33:55.816Z,3.65
2022-09-21T11:36:29.504Z,1.98
2022-09-21T11:39:00.289Z,3.28
2022-09-21T11:41:35.988Z,2.42
2022-09-21T11:44:18.256Z,6.38
2022-09-21T11:46:51.990Z,3.20
2022-09-21T11:49:40.886Z,3.58
2022-09-21T11:52:20.375Z,6.22
2022-09-21T11:54:55.255Z,2.45
2022-09-21T11:57:28.365Z,4.25
2022-09-21T12:00:11.649Z,4.22
2022-09-21T12:03:03.748Z,3.65
2022-09-21T12:05:35.509Z,4.20
2022-09-21T12:08:17.002Z,4.18
2022-09-21T12:10:50.779Z,4.95
2022-09-21T12:13:24.134Z,3.88
2022-09-21T12:15:59.832Z,3.55
2022-09-21T12:18:33.244Z,2.03
2022-09-21T12:21:04.253Z,2.40
2022-09-21T12:23:38.914Z,2.58
2022-09-21T12:26:07.802Z,3.95
2022-09-21T12:28:38.621Z,3.40
2022-09-21T12:31:11.520Z,3.75
2022-09-21T12:33:45.312Z,3.70
2022-09-21T12:36:17.301Z,3.72
2022-09-21T12:38:48.161Z,3.45
2022-09-21T12:41:19.333Z,4.80
2022-09-21T12:43:51.246Z,3.20
2022-09-21T12:46:23.050Z,3.33
2022-09-21T12:48:51.470Z,3.67
2022-09-21T12:51:23.056Z,3.78
2022-09-21T12:53:52.956Z,3.70
2022-09-21T12:56:31.573Z,5.68
2022-09-21T12:59:08.532Z,3.25
2022-09-21T13:01:41.965Z,3.10
2022-09-21T13:04:41.870Z,4.85
2022-09-21T13:07:30.093Z,4.18
2022-09-21T13:09:59.428Z,3.78
2022-09-21T13:12:32.935Z,3.63
2022-09-21T13:15:04.836Z,3.22
2022-09-21T13:17:35.834Z,2.60
2022-09-21T13:20:06.229Z,5.47
2022-09-21T13:22:35.777Z,5.40
2022-09-21T13:25:06.623Z,2.72
2022-09-21T13:27:54.881Z,3.33
2022-09-21T13:30:32.689Z,4.30
2022-09-21T13:33:02.894Z,2.65
2022-09-21T13:35:49.278Z,4.40
2022-09-21T13:38:27.447Z,2.85
2022-09-21T13:40:59.768Z,4.63
2022-09-21T13:43:54.690Z,2.50
2022-09-21T13:46:42.996Z,2.63
2022-09-21T13:49:18.444Z,3.25
2022-09-21T13:51:54.176Z,3.33
2022-09-21T13:54:24.033Z,2.22
2022-09-21T13:57:00.410Z,1.75
2022-09-21T13:59:29.139Z,2.88
2022-09-21T14:01:58.137Z,3.97
2022-09-21T14:04:29.029Z,2.20
2022-09-21T14:06:58.872Z,2.50
2022-09-21T14:09:28.966Z,3.45
2022-09-21T14:11:59.480Z,3.30
2022-09-21T14:14:30.336Z,3.78
2022-09-21T14:16:59.799Z,3.92
2022-09-21T14:19:46.958Z,2.80
2022-09-21T14:22:45.723Z,2.90
2022-09-21T14:25:51.090Z,3.03
2022-09-21T14:28:20.681Z,3.83
2022-09-21T14:30:54.491Z,6.00
2022-09-21T14:33:26.549Z,3.53
2022-09-21T14:35:56.347Z,2.25
2022-09-21T14:38:26.393Z,3.25
2022-09-21T14:40:58.306Z,3.05
2022-09-21T14:43:28.069Z,3.90
2022-09-21T14:46:03.065Z,2.88
2022-09-21T14:48:36.208Z,3.28
2022-09-21T14:51:09.992Z,4.93
2022-09-21T14:53:58.188Z,3.85
2022-09-21T14:56:38.987Z,2.40
2022-09-21T14:59:21.194Z,4.70
2022-09-21T15:01:59.350Z,3.80
2022-09-21T15:04:54.526Z,5.43
2022-09-21T15:07:48.130Z,5.30
2022-09-21T15:10:38.039Z,7.03
2022-09-21T15:13:13.415Z,4.45
2022-09-21T15:15:44.397Z,3.45
2022-09-21T15:18:20.456Z,3.95
2022-09-21T15:21:00.257Z,2.65
2022-09-21T15:23:29.267Z,10.32
2022-09-21T15:26:00.406Z,2.38
2022-09-21T15:28:51.752Z,5.75
2022-09-21T15:31:21.943Z,2.85
2022-09-21T15:33:52.316Z,3.60
2022-09-21T15:36:25.408Z,2.58
2022-09-21T15:38:54.148Z,3.03
2022-09-21T15:41:39.451Z,3.05
2022-09-21T15:44:16.593Z,4.72
2022-09-21T15:46:46.835Z,3.67
2022-09-21T15:49:17.904Z,4.78
2022-09-21T15:51:46.644Z,4.05
2022-09-21T15:54:30.630Z,3.53
2022-09-21T15:56:59.277Z,4.63
2022-09-21T15:59:30.476Z,3.85
2022-09-21T16:02:00.201Z,2.67
2022-09-21T16:04:29.242Z,3.60
2022-09-21T16:07:04.122Z,2.58
2022-09-21T16:09:41.287Z,6.38
2022-09-21T16:12:31.884Z,3.95
2022-09-21T16:15:04.349Z,4.07
2022-09-21T16:17:37.896Z,5.18
2022-09-21T16:20:17.350Z,5.50
2022-09-21T16:22:47.499Z,3.53
2022-09-21T16:25:22.443Z,3.60
2022-09-21T16:27:52.482Z,4.45
2022-09-21T16:30:40.154Z,4.30
2022-09-21T16:33:23.314Z,4.30
2022-09-21T16:35:53.084Z,5.85
2022-09-21T16:38:23.587Z,3.22
2022-09-21T16:40:54.120Z,6.68
2022-09-21T16:43:23.274Z,3.95
2022-09-21T16:45:51.862Z,3.90
2022-09-21T16:48:20.293Z,4.25
2022-09-21T16:50:53.912Z,5.05
2022-09-21T16:53:23.722Z,4.70
2022-09-21T16:55:53.364Z,3.03
2022-09-21T16:58:22.023Z,4.07
2022-09-21T17:00:55.668Z,5.03
2022-09-21T17:03:24.811Z,4.45
2022-09-21T17:05:53.161Z,8.50
2022-09-21T17:08:21.812Z,4.53
2022-09-21T17:10:51.717Z,3.97
2022-09-21T17:13:20.538Z,5.30
2022-09-21T17:15:49.846Z,7.72
2022-09-21T17:18:18.511Z,3.40
2022-09-21T17:20:47.373Z,5.68
2022-09-21T17:23:15.772Z,5.90
2022-09-21T17:25:45.610Z,4.32
2022-09-21T17:28:17.267Z,5.35
2022-09-21T17:30:47.826Z,3.10
2022-09-21T17:33:17.847Z,4.95
2022-09-21T17:35:46.285Z,4.75
2022-09-21T17:38:15.007Z,4.03
2022-09-21T17:40:43.651Z,5.55
2022-09-21T17:43:22.595Z,4.47
2022-09-21T17:45:54.624Z,6.18
2022-09-21T17:48:23.790Z,7.38
2022-09-21T17:50:52.668Z,5.63
2022-09-21T17:53:37.338Z,4.30
2022-09-21T17:56:14.364Z,6.35
2022-09-21T17:58:46.841Z,5.45
2022-09-21T18:01:20.890Z,3.38
2022-09-21T18:03:49.517Z,4.72
2022-09-21T18:06:18.294Z,3.85
2022-09-21T18:08:46.861Z,6.28
2022-09-21T18:11:22.152Z,6.05
2022-09-21T18:13:55.956Z,4.32
2022-09-21T18:16:28.187Z,6.32
2022-09-21T18:19:04.908Z,4.85
2022-09-21T18:21:36.085Z,5.50
2022-09-21T18:24:11.845Z,5.20
2022-09-21T18:26:40.432Z,7.97
2022-09-21T18:29:37.906Z,5.55
2022-09-21T18:32:11.332Z,7.78
2022-09-21T18:35:02.205Z,6.72
2022-09-21T18:37:34.154Z,4.20
2022-09-21T18:40:09.657Z,9.45
2022-09-21T18:42:42.451Z,8.27
2022-09-21T18:45:15.850Z,9.63
2022-09-21T18:47:47.186Z,16.30
2022-09-21T18:50:20.170Z,15.98
2022-09-21T18:52:52.433Z,13.68
2022-09-21T18:55:26.931Z,15.02
2022-09-21T18:57:55.860Z,8.57
2022-09-21T19:00:31.468Z,8.57
2022-09-21T19:03:16.356Z,7.53
2022-09-21T19:05:49.730Z,6.43
2022-09-21T19:08:21.627Z,4.45
2022-09-21T19:10:52.968Z,5.22
2022-09-21T19:13:33.363Z,7.00
2022-09-21T19:16:07.495Z,7.35
2022-09-21T19:18:41.895Z,5.20
2022-09-21T19:21:14.125Z,8.45
2022-09-21T19:23:49.119Z,5.15
2022-09-21T19:26:20.874Z,7.38
2022-09-21T19:29:06.911Z,6.53
2022-09-21T19:31:37.071Z,9.05
2022-09-21T19:34:11.901Z,8.30
2022-09-21T19:36:40.473Z,5.40
2022-09-21T19:39:10.320Z,5.95
2022-09-21T19:41:43.359Z,6.28
2022-09-21T19:44:17.930Z,4.40
2022-09-21T19:47:00.158Z,5.53
2022-09-21T19:49:34.802Z,5.35
2022-09-21T19:52:05.127Z,7.30
2022-09-21T19:54:51.882Z,5.85
2022-09-21T19:57:38.676Z,4.55
2022-09-21T20:00:08.552Z,4.93
2022-09-21T20:02:41.615Z,6.50
2022-09-21T20:05:12.877Z,5.68
2022-09-21T20:07:44.466Z,4.72
2022-09-21T20:10:27.174Z,8.63
2022-09-21T20:12:59.115Z,8.10
2022-09-21T20:15:33.784Z,6.35
2022-09-21T20:18:05.468Z,6.97
2022-09-21T20:20:34.908Z,6.97
2022-09-21T20:23:03.677Z,7.28
2022-09-21T20:25:34.819Z,7.18
2022-09-21T20:28:03.906Z,7.75
2022-09-21T20:30:32.979Z,7.80
2022-09-21T20:33:05.300Z,6.93
2022-09-21T20:35:33.764Z,9.43
2022-09-21T20:38:03.333Z,5.50
2022-09-21T20:40:32.668Z,7.43
2022-09-21T20:43:01.853Z,7.97
2022-09-21T20:45:32.476Z,6.25
2022-09-21T20:48:13.168Z,7.68
2022-09-21T20:50:43.781Z,8.40
2022-09-21T20:53:12.641Z,8.18
2022-09-21T20:55:41.259Z,9.95
2022-09-21T20:58:10.385Z,11.10
2022-09-21T21:00:38.947Z,12.57
2022-09-21T21:03:07.425Z,9.90
2022-09-21T21:05:35.815Z,7.25
2022-09-21T21:08:05.938Z,8.25
2022-09-21T21:10:34.370Z,8.48
2022-09-21T21:13:02.917Z,7.15
2022-09-21T21:15:31.757Z,7.40
2022-09-21T21:18:00.186Z,7.07
2022-09-21T21:20:29.152Z,8.10
2022-09-21T21:22:57.525Z,5.88
2022-09-21T21:25:27.367Z,7.28
2022-09-21T21:27:58.211Z,8.20
2022-09-21T21:30:26.826Z,6.10
2022-09-21T21:32:55.426Z,6.35
2022-09-21T21:35:24.109Z,7.70
2022-09-21T21:37:52.610Z,6.28
2022-09-21T21:40:21.834Z,6.28
2022-09-21T21:42:51.570Z,6.63
2022-09-21T21:45:21.506Z,6.47
2022-09-21T21:47:50.246Z,7.68
2022-09-21T21:50:18.601Z,9.75
2022-09-21T21:52:46.973Z,7.65
2022-09-21T21:55:15.405Z,8.80
2022-09-21T21:57:43.782Z,9.13
2022-09-21T22:00:15.344Z,7.05
2022-09-21T22:02:43.661Z,9.88
2022-09-21T22:05:11.999Z,6.25
2022-09-21T22:07:41.279Z,8.43
2022-09-21T22:10:10.229Z,9.77
2022-09-21T22:12:38.664Z,6.07
2022-09-21T22:15:07.485Z,8.30
2022-09-21T22:17:37.164Z,7.40
2022-09-21T22:20:05.753Z,7.60
2022-09-21T22:22:34.085Z,5.93
2022-09-21T22:25:03.105Z,10.20
2022-09-21T22:27:31.469Z,9.07
2022-09-21T22:29:59.808Z,9.40
2022-09-21T22:32:28.130Z,12.60
2022-09-21T22:34:57.945Z,9.52
2022-09-21T22:37:26.378Z,12.05
2022-09-21T22:39:54.801Z,7.90
2022-09-21T22:42:23.767Z,11.07
2022-09-21T22:44:52.290Z,7.55
2022-09-21T22:47:20.588Z,10.05
2022-09-21T22:49:48.999Z,7.63
2022-09-21T22:52:18.831Z,8.05
2022-09-21T22:54:47.186Z,6.90
2022-09-21T22:57:15.566Z,8.20
2022-09-21T22:59:44.059Z,8.35
2022-09-21T23:02:12.418Z,6.07
2022-09-21T23:04:40.916Z,6.07
2022-09-21T23:07:09.357Z,7.05
2022-09-21T23:09:39.290Z,8.30
2022-09-21T23:12:07.909Z,6.10
2022-09-21T23:14:36.287Z,10.23
2022-09-21T23:17:04.653Z,6.63
2022-09-21T23:19:33.164Z,6.13
2022-09-21T23:22:01.594Z,7.72
2022-09-21T23:24:30.090Z,9.70
2022-09-21T23:26:59.940Z,7.28
2022-09-21T23:29:28.307Z,8.02
2022-09-21T23:31:56.833Z,7.35
2022-09-21T23:34:25.216Z,7.60
2022-09-21T23:36:53.533Z,6.25
2022-09-21T23:39:21.969Z,9.15
2022-09-21T23:41:50.298Z,7.25
2022-09-21T23:44:20.041Z,8.98
2022-09-21T23:46:48.457Z,7.10
2022-09-21T23:49:16.868Z,8.52
2022-09-21T23:51:45.184Z,6.82
2022-09-21T23:54:15.145Z,7.03
2022-09-21T23:56:43.992Z,9.15
2022-09-21T23:59:12.328Z,6.78
